Wetterdaten: aktuell Freitag, 24.06.2022 21:00
Datum Zeit Temp. A. Feuchte A. Luftdruck Regen Wind Richtung Richtung Sonnenschein ET UV Solar Taupunkt Windchill Windben
24.06.2022 21:00 21,1 C 82 % 1007,3 hPa 0,0 l/m 1,8 km/h (1 Bft) N-NW 331 0 min 0,025 mm 0,0 UV-I 9 W/m 17,9 C 21,1 C 6,4 km/h (2 Bft)
24.06.2022 20:00 22,5 C 73 % 1006,7 hPa 0,4 l/m 0,1 km/h (0 Bft) N-NW 347 0 min 0,026 mm 0,0 UV-I 72 W/m 17,4 C 22,5 C 1,6 km/h (1 Bft)
24.06.2022 19:00 24,8 C 60 % 1006,9 hPa 0,0 l/m 0,2 km/h (0 Bft) S-SO 157 15 min 0,127 mm 0,0 UV-I 35 W/m 16,5 C 24,8 C 3,2 km/h (1 Bft)
24.06.2022 18:00 26,6 C 56 % 1006,6 hPa 0,0 l/m 3,0 km/h (1 Bft) S-SO 150 60 min 0,355 mm 1,3 UV-I 443 W/m 17,1 C 26,6 C 8,0 km/h (2 Bft)
24.06.2022 17:00 26,8 C 58 % 1006,4 hPa 0,0 l/m 3,5 km/h (1 Bft) O-SO 108 60 min 0,458 mm 2,3 UV-I 626 W/m 17,8 C 26,8 C 11,3 km/h (2 Bft)
24.06.2022 16:00 24,2 C 67 % 1007,7 hPa 0,0 l/m 4,0 km/h (1 Bft) S-SW 207 40 min 0,304 mm 3,6 UV-I 782 W/m 17,7 C 24,2 C 12,9 km/h (3 Bft)
24.06.2022 15:00 21,1 C 83 % 1008,0 hPa 0,4 l/m 1,0 km/h (0 Bft) SO 127 0 min 0,127 mm 1,5 UV-I 248 W/m 18,1 C 21,1 C 8,0 km/h (2 Bft)
24.06.2022 14:00 22,4 C 76 % 1008,7 hPa 0,0 l/m 2,3 km/h (1 Bft) S-SW 205 0 min 0,102 mm 0,5 UV-I 76 W/m 18,0 C 22,4 C 6,4 km/h (2 Bft)
24.06.2022 13:00 23,1 C 69 % 1007,9 hPa 0,0 l/m 3,4 km/h (1 Bft) W-NW 294 0 min 0,127 mm 1,3 UV-I 167 W/m 17,1 C 23,1 C 11,3 km/h (2 Bft)
24.06.2022 12:00 24,8 C 56 % 1008,0 hPa 0,0 l/m 6,4 km/h (2 Bft) W 264 35 min 0,331 mm 1,4 UV-I 190 W/m 15,4 C 24,8 C 14,5 km/h (3 Bft)
24.06.2022 11:00 28,7 C 38 % 1007,6 hPa 0,0 l/m 1,6 km/h (1 Bft) S 180 50 min 0,406 mm 4,1 UV-I 775 W/m 13,0 C 28,7 C 4,8 km/h (1 Bft)
24.06.2022 10:00 26,4 C 42 % 1008,2 hPa 0,0 l/m 1,6 km/h (1 Bft) SO 135 0 min 0,076 mm 1,9 UV-I 153 W/m 12,4 C 26,4 C 8,0 km/h (2 Bft)
24.06.2022 09:00 24,6 C 48 % 1008,8 hPa 0,0 l/m 1,6 km/h (1 Bft) O 90 5 min 0,076 mm 1,5 UV-I 236 W/m 12,8 C 24,6 C 6,4 km/h (2 Bft)
24.06.2022 08:00 23,3 C 52 % 1009,3 hPa 0,0 l/m 1,6 km/h (1 Bft) O-NO 67 60 min 0,178 mm 1,0 UV-I 359 W/m 12,9 C 23,3 C 8,0 km/h (2 Bft)
24.06.2022 07:00 19,7 C 61 % 1009,4 hPa 0,0 l/m 0,0 km/h (0 Bft) O 90 55 min 0,076 mm 0,5 UV-I 214 W/m 12,0 C 19,7 C 3,2 km/h (1 Bft)
24.06.2022 06:00 17,1 C 65 % 1009,6 hPa 0,0 l/m 0,0 km/h (0 Bft) N 0 5 min 0,025 mm 0,0 UV-I 42 W/m 10,5 C 17,1 C 0,0 km/h (0 Bft)
24.06.2022 05:00 17,1 C 62 % 1009,8 hPa 0,0 l/m 0,0 km/h (0 Bft) N 0 0 min 0,051 mm 0,0 UV-I 5 W/m 9,8 C 17,1 C 0,0 km/h (0 Bft)
24.06.2022 04:00 18,3 C 56 % 1010,1 hPa 0,0 l/m 0,0 km/h (0 Bft) N 0 0 min 0,051 mm 0,0 UV-I 0 W/m 9,4 C 18,3 C 0,0 km/h (0 Bft)
24.06.2022 03:00 19,4 C 52 % 1010,2 hPa 0,0 l/m 1,6 km/h (1 Bft) O 90 0 min 0,051 mm 0,0 UV-I 0 W/m 9,3 C 19,4 C 3,2 km/h (1 Bft)
24.06.2022 02:00 18,4 C 58 % 1010,2 hPa 0,0 l/m 0,0 km/h (0 Bft) N 0 0 min 0,025 mm 0,0 UV-I 0 W/m 10,0 C 18,4 C 0,0 km/h (0 Bft)
24.06.2022 01:00 20,0 C 56 % 1010,4 hPa 0,0 l/m 0,0 km/h (0 Bft) N 0 0 min 0,051 mm 0,0 UV-I 0 W/m 11,0 C 20,0 C 0,0 km/h (0 Bft)
24.06.2022 00:00 21,8 C 49 % 1010,3 hPa 0,0 l/m 0,0 km/h (0 Bft) N 0 0 min 0,051 mm 0,0 UV-I 0 W/m 10,6 C 21,8 C 0,0 km/h (0 Bft)
_ Min-Zeit 05:25 11:05 17:10 - 00:00 - - - - - - 02:25 05:25 00:00
Minimum _ 16,8 C 37 % 1006,1 hPa - 0,0 km/h (0 Bft) - - - - - - 9,2 C 16,8 C 0,0 km/h (0 Bft)
_ Max-Zeit 11:20 14:50 00:10 14:10 11:50 - - 05:10 17:00 11:05 10:40 20:50 11:20 11:50
Maximum _ 29,1 C 83 % 1010,4 hPa 0,2 l/m 10,0 km/h
NW (2 Bft)
- - 5 min 0,458 mm 4,3 UV-I 830 W/m 18,3 C 29,1 C 24,1 km/h
W (4 Bft)
Durchschnitt _ 22,4 C 60 % 1008,5 hPa #0,8 l/m 1,7 km/h (1 Bft) S-SO - #6:25 h #3,048 mm 1,9 UV-I 266 W/m 13,9 C 22,4 C 6,1 km/h (2 Bft)